createdAt,value
2022-10-12T00:00:36.504Z,102321.47
2022-10-12T00:03:03.055Z,102330.34
2022-10-12T00:05:29.640Z,102320.56
2022-10-12T00:07:56.193Z,102334.72
2022-10-12T00:10:22.763Z,102332.09
2022-10-12T00:12:49.347Z,102325.00
2022-10-12T00:15:15.971Z,102328.53
2022-10-12T00:17:42.507Z,102325.00
2022-10-12T00:20:09.308Z,102332.06
2022-10-12T00:22:35.902Z,102326.75
2022-10-12T00:25:02.453Z,102335.59
2022-10-12T00:27:28.995Z,102336.50
2022-10-12T00:29:55.532Z,102325.84
2022-10-12T00:32:22.081Z,102333.81
2022-10-12T00:34:48.701Z,102331.16
2022-10-12T00:37:15.327Z,102333.78
2022-10-12T00:39:41.858Z,102331.97
2022-10-12T00:42:11.694Z,102324.91
2022-10-12T00:44:42.831Z,102327.56
2022-10-12T00:47:28.670Z,102335.53
2022-10-12T00:50:00.341Z,102330.19
2022-10-12T00:52:37.733Z,102331.06
2022-10-12T00:55:04.815Z,102330.19
2022-10-12T00:57:31.365Z,102337.25
2022-10-12T01:00:04.676Z,102339.00
2022-10-12T01:02:32.683Z,102330.16
2022-10-12T01:04:59.642Z,102340.75
2022-10-12T01:07:26.483Z,102339.00
2022-10-12T01:09:53.211Z,102338.97
2022-10-12T01:12:20.386Z,102339.81
2022-10-12T01:14:46.978Z,102337.19
2022-10-12T01:17:45.991Z,102336.28
2022-10-12T01:20:30.310Z,102339.81
2022-10-12T01:23:16.921Z,102349.53
2022-10-12T01:26:05.826Z,102345.13
2022-10-12T01:28:43.143Z,102340.66
2022-10-12T01:31:18.197Z,102346.84
2022-10-12T01:33:48.988Z,102348.59
2022-10-12T01:36:26.572Z,102345.91
2022-10-12T01:39:10.975Z,102351.22
2022-10-12T01:41:47.128Z,102341.47
2022-10-12T01:44:23.655Z,102350.34
2022-10-12T01:46:51.089Z,102351.22
2022-10-12T01:49:20.363Z,102352.97
2022-10-12T01:51:55.208Z,102352.97
2022-10-12T01:54:34.516Z,102348.53
2022-10-12T01:57:08.942Z,102342.34
2022-10-12T01:59:56.021Z,102339.63
2022-10-12T02:02:31.803Z,102344.94
2022-10-12T02:05:06.114Z,102345.81
2022-10-12T02:07:41.831Z,102336.13
2022-10-12T02:10:14.306Z,102329.91
2022-10-12T02:12:43.608Z,102331.66
2022-10-12T02:15:11.961Z,102335.22
2022-10-12T02:17:40.159Z,102329.88
2022-10-12T02:20:09.674Z,102338.72
2022-10-12T02:22:37.300Z,102331.63
2022-10-12T02:25:06.964Z,102328.09
2022-10-12T02:27:35.399Z,102334.28
2022-10-12T02:30:02.761Z,102319.19
2022-10-12T02:32:45.543Z,102320.06
2022-10-12T02:35:29.651Z,102326.25
2022-10-12T02:38:08.060Z,102326.25
2022-10-12T02:41:15.487Z,102320.03
2022-10-12T02:43:45.337Z,102318.25
2022-10-12T02:46:12.664Z,102313.84
2022-10-12T02:48:40.347Z,102313.84
2022-10-12T02:51:08.722Z,102308.53
2022-10-12T02:53:35.278Z,102307.59
2022-10-12T02:56:06.535Z,102309.38
2022-10-12T02:58:33.071Z,102311.16
2022-10-12T03:00:59.710Z,102315.56
2022-10-12T03:03:26.275Z,102315.56
2022-10-12T03:05:52.875Z,102308.41
2022-10-12T03:08:19.491Z,102312.00
2022-10-12T03:10:46.021Z,102315.56
2022-10-12T03:13:12.591Z,102319.13
2022-10-12T03:15:39.218Z,102312.91
2022-10-12T03:18:05.762Z,102306.72
2022-10-12T03:20:32.303Z,102304.03
2022-10-12T03:22:58.860Z,102308.44
2022-10-12T03:25:25.415Z,102305.75
2022-10-12T03:27:51.962Z,102309.28
2022-10-12T03:30:18.684Z,102308.38
2022-10-12T03:32:45.233Z,102308.38
2022-10-12T03:35:11.818Z,102305.69
2022-10-12T03:37:38.548Z,102297.72
2022-10-12T03:40:05.860Z,102302.16
2022-10-12T03:42:32.422Z,102303.03
2022-10-12T03:44:58.959Z,102298.66
2022-10-12T03:47:25.538Z,102295.97
2022-10-12T03:49:52.095Z,102298.59
2022-10-12T03:52:18.636Z,102301.25
2022-10-12T03:54:45.174Z,102303.84
2022-10-12T03:57:11.719Z,102293.22
2022-10-12T03:59:38.269Z,102301.16
2022-10-12T04:02:04.808Z,102310.84
2022-10-12T04:04:31.520Z,102311.69
2022-10-12T04:06:58.310Z,102309.00
2022-10-12T04:09:24.859Z,102308.09
2022-10-12T04:11:51.420Z,102310.81
2022-10-12T04:14:17.999Z,102310.78
2022-10-12T04:16:44.539Z,102307.22
2022-10-12T04:19:14.158Z,102305.44
2022-10-12T04:21:41.006Z,102308.09
2022-10-12T04:24:08.015Z,102319.53
2022-10-12T04:26:34.548Z,102316.94
2022-10-12T04:29:01.086Z,102316.03
2022-10-12T04:31:27.636Z,102316.91
2022-10-12T04:33:57.086Z,102312.47
2022-10-12T04:36:24.616Z,102301.84
2022-10-12T04:38:51.250Z,102311.53
2022-10-12T04:41:17.840Z,102315.06
2022-10-12T04:43:44.430Z,102314.16
2022-10-12T04:46:11.578Z,102318.59
2022-10-12T04:48:38.600Z,102322.13
2022-10-12T04:51:05.687Z,102328.25
2022-10-12T04:53:32.500Z,102329.09
2022-10-12T04:56:02.855Z,102328.16
2022-10-12T04:58:29.397Z,102330.81
2022-10-12T05:00:55.954Z,102318.41
2022-10-12T05:03:22.663Z,102329.06
2022-10-12T05:05:49.220Z,102320.16
2022-10-12T05:08:15.751Z,102328.97
2022-10-12T05:10:42.367Z,102328.03
2022-10-12T05:13:08.905Z,102322.72
2022-10-12T05:15:35.703Z,102332.44
2022-10-12T05:18:02.236Z,102328.00
2022-10-12T05:20:28.829Z,102326.28
2022-10-12T05:22:57.921Z,102324.50
2022-10-12T05:25:24.766Z,102326.25
2022-10-12T05:27:51.316Z,102335.97
2022-10-12T05:30:17.910Z,102325.38
2022-10-12T05:32:44.597Z,102333.31
2022-10-12T05:35:11.439Z,102328.03
2022-10-12T05:37:38.340Z,102332.44
2022-10-12T05:40:05.826Z,102332.41
2022-10-12T05:42:32.358Z,102336.81
2022-10-12T05:44:58.961Z,102331.53
2022-10-12T05:47:26.174Z,102328.88
2022-10-12T05:49:52.756Z,102337.72
2022-10-12T05:52:19.282Z,102335.97
2022-10-12T05:54:45.848Z,102337.69
2022-10-12T05:57:14.991Z,102337.72
2022-10-12T05:59:44.426Z,102340.41
2022-10-12T06:02:15.750Z,102340.44
2022-10-12T06:04:42.425Z,102338.69
2022-10-12T06:07:09.397Z,102329.84
2022-10-12T06:09:39.087Z,102330.69
2022-10-12T06:12:06.831Z,102336.91
2022-10-12T06:14:33.363Z,102338.69
2022-10-12T06:16:59.906Z,102342.25
2022-10-12T06:19:26.439Z,102341.41
2022-10-12T06:21:53.048Z,102349.38
2022-10-12T06:24:19.576Z,102350.28
2022-10-12T06:26:46.114Z,102349.38
2022-10-12T06:29:12.639Z,102351.19
2022-10-12T06:31:40.049Z,102362.66
2022-10-12T06:34:06.642Z,102359.19
2022-10-12T06:36:33.196Z,102356.56
2022-10-12T06:38:59.732Z,102353.94
2022-10-12T06:41:26.470Z,102349.56
2022-10-12T06:43:53.114Z,102351.38
2022-10-12T06:46:19.662Z,102355.81
2022-10-12T06:48:46.237Z,102362.09
2022-10-12T06:51:12.794Z,102355.97
2022-10-12T06:53:39.333Z,102356.91
2022-10-12T06:56:09.850Z,102356.06
2022-10-12T06:58:36.411Z,102363.19
2022-10-12T07:01:04.292Z,102354.38
2022-10-12T07:03:30.907Z,102357.09
2022-10-12T07:06:07.488Z,102358.94
2022-10-12T07:08:34.508Z,102356.34
2022-10-12T07:11:05.484Z,102349.28
2022-10-12T07:13:33.008Z,102353.72
2022-10-12T07:15:59.932Z,102364.41
2022-10-12T07:18:26.518Z,102360.94
2022-10-12T07:20:55.082Z,102363.63
2022-10-12T07:23:21.614Z,102358.34
2022-10-12T07:25:49.844Z,102355.69
2022-10-12T07:28:17.465Z,102365.56
2022-10-12T07:30:44.297Z,102362.09
2022-10-12T07:33:10.948Z,102363.88
2022-10-12T07:35:51.421Z,102355.16
2022-10-12T07:38:24.324Z,102343.66
2022-10-12T07:40:50.871Z,102355.22
2022-10-12T07:43:17.456Z,102359.66
2022-10-12T07:45:44.603Z,102356.09
2022-10-12T07:48:11.409Z,102358.78
2022-10-12T07:50:38.412Z,102360.56
2022-10-12T07:53:05.055Z,102365.00
2022-10-12T07:55:32.108Z,102354.34
2022-10-12T07:57:59.976Z,102351.69
2022-10-12T08:00:26.932Z,102350.81
2022-10-12T08:02:54.750Z,102361.44
2022-10-12T08:05:22.333Z,102348.16
2022-10-12T08:07:50.004Z,102354.31
2022-10-12T08:10:17.665Z,102360.50
2022-10-12T08:12:48.470Z,102352.50
2022-10-12T08:15:18.444Z,102355.97
2022-10-12T08:17:45.070Z,102349.69
2022-10-12T08:20:11.615Z,102348.56
2022-10-12T08:22:38.174Z,102350.88
2022-10-12T08:25:05.229Z,102346.03
2022-10-12T08:27:32.039Z,102354.47
2022-10-12T08:29:58.812Z,102344.88
2022-10-12T08:32:25.619Z,102340.59
2022-10-12T08:34:52.449Z,102343.97
2022-10-12T08:37:19.168Z,102342.19
2022-10-12T08:39:45.743Z,102341.00
2022-10-12T08:42:51.349Z,102341.75
2022-10-12T08:45:55.185Z,102348.38
2022-10-12T08:48:24.581Z,102343.53
2022-10-12T08:54:06.038Z,102345.63
2022-10-12T08:56:34.856Z,102350.13
2022-10-12T08:59:02.143Z,102345.16
2022-10-12T09:01:37.535Z,102337.13
2022-10-12T09:04:33.540Z,102334.03
2022-10-12T09:07:12.140Z,102340.81
2022-10-12T09:09:57.614Z,102337.72
2022-10-12T09:12:24.086Z,102328.72
2022-10-12T09:14:51.703Z,102330.81
2022-10-12T09:17:28.996Z,102325.38
2022-10-12T09:20:27.990Z,102325.34
2022-10-12T09:22:58.784Z,102317.34
2022-10-12T09:25:27.555Z,102318.34
2022-10-12T09:27:54.519Z,102323.03
2022-10-12T09:30:21.400Z,102319.78
2022-10-12T09:33:12.895Z,102313.13
2022-10-12T09:35:39.927Z,102315.56
2022-10-12T09:38:06.797Z,102313.63
2022-10-12T09:40:33.373Z,102318.00
2022-10-12T09:43:01.953Z,102314.00
2022-10-12T09:45:31.189Z,102306.13
2022-10-12T09:48:18.168Z,102306.72
2022-10-12T09:51:02.317Z,102309.06
2022-10-12T09:53:34.512Z,102305.84
2022-10-12T09:56:06.614Z,102301.75
2022-10-12T09:58:40.205Z,102306.34
2022-10-12T10:01:16.621Z,102302.72
2022-10-12T10:03:43.231Z,102299.63
2022-10-12T10:06:09.802Z,102294.00
2022-10-12T10:08:44.580Z,102299.50
2022-10-12T10:11:32.864Z,102293.84
2022-10-12T10:14:01.344Z,102297.63
2022-10-12T10:16:29.415Z,102298.22
2022-10-12T10:19:00.813Z,102288.13
2022-10-12T10:21:33.487Z,102285.88
2022-10-12T10:24:05.323Z,102289.72
2022-10-12T10:27:17.230Z,102286.94
2022-10-12T10:29:45.548Z,102271.88
2022-10-12T10:32:29.225Z,102276.50
2022-10-12T10:35:04.900Z,102278.63
2022-10-12T10:37:32.296Z,102284.13
2022-10-12T10:39:59.366Z,102280.16
2022-10-12T10:42:31.953Z,102288.50
2022-10-12T10:45:04.607Z,102282.13
2022-10-12T10:47:32.511Z,102282.63
2022-10-12T10:50:00.734Z,102284.22
2022-10-12T10:52:35.779Z,102285.25
2022-10-12T10:55:06.462Z,102283.66
2022-10-12T10:57:34.060Z,102276.66
2022-10-12T11:00:26.359Z,102272.50
2022-10-12T11:02:58.968Z,102266.28
2022-10-12T11:05:29.744Z,102261.03
2022-10-12T11:08:03.070Z,102262.22
2022-10-12T11:10:34.235Z,102264.91
2022-10-12T11:13:26.508Z,102256.19
2022-10-12T11:16:10.522Z,102252.25
2022-10-12T11:18:45.413Z,102248.44
2022-10-12T11:21:15.796Z,102235.13
2022-10-12T11:23:48.468Z,102242.25
2022-10-12T11:26:32.598Z,102237.94
2022-10-12T11:29:00.598Z,102238.63
2022-10-12T11:31:32.345Z,102238.53
2022-10-12T11:34:00.710Z,102230.09
2022-10-12T11:36:29.946Z,102229.41
2022-10-12T11:39:07.596Z,102229.47
2022-10-12T11:42:09.806Z,102223.28
2022-10-12T11:44:43.627Z,102222.78
2022-10-12T11:47:18.063Z,102222.50
2022-10-12T11:49:55.793Z,102213.88
2022-10-12T11:52:27.819Z,102215.19
2022-10-12T11:55:21.645Z,102213.63
2022-10-12T11:57:49.047Z,102205.00
2022-10-12T12:00:19.593Z,102204.38
2022-10-12T12:02:50.848Z,102201.53
2022-10-12T12:05:17.449Z,102202.09
2022-10-12T12:07:54.267Z,102199.59
2022-10-12T12:10:27.802Z,102192.69
2022-10-12T12:13:18.212Z,102189.69
2022-10-12T12:15:47.456Z,102182.00
2022-10-12T12:18:24.094Z,102183.31
2022-10-12T12:21:05.107Z,102172.47
2022-10-12T12:23:43.633Z,102181.81
2022-10-12T12:26:15.743Z,102177.31
2022-10-12T12:28:48.330Z,102179.34
2022-10-12T12:31:27.916Z,102175.97
2022-10-12T12:34:06.054Z,102165.75
2022-10-12T12:36:37.895Z,102161.75
2022-10-12T12:39:07.695Z,102159.25
2022-10-12T12:41:55.081Z,102170.34
2022-10-12T12:44:38.263Z,102178.38
2022-10-12T12:47:20.518Z,102169.84
2022-10-12T12:50:00.548Z,102164.00
2022-10-12T12:52:29.409Z,102168.41
2022-10-12T12:55:14.329Z,102157.97
2022-10-12T12:57:53.313Z,102156.91
2022-10-12T13:00:30.710Z,102158.19
2022-10-12T13:03:24.695Z,102163.28
2022-10-12T13:06:22.973Z,102152.91
2022-10-12T13:08:59.060Z,102152.75
2022-10-12T13:11:37.762Z,102149.16
2022-10-12T13:14:41.893Z,102146.78
2022-10-12T13:17:32.766Z,102141.88
2022-10-12T13:20:02.637Z,102135.28
2022-10-12T13:22:35.270Z,102136.38
2022-10-12T13:25:03.589Z,102132.63
2022-10-12T13:27:45.808Z,102137.34
2022-10-12T13:30:12.263Z,102136.31
2022-10-12T13:32:46.102Z,102141.94
2022-10-12T13:35:40.184Z,102136.63
2022-10-12T13:38:19.938Z,102135.22
2022-10-12T13:40:55.792Z,102127.78
2022-10-12T13:43:46.678Z,102131.56
2022-10-12T13:46:15.532Z,102128.91
2022-10-12T13:48:59.281Z,102129.09
2022-10-12T13:51:29.144Z,102119.44
2022-10-12T13:53:55.864Z,102118.38
2022-10-12T13:56:27.209Z,102114.13
2022-10-12T13:59:04.137Z,102118.47
2022-10-12T14:01:35.525Z,102115.44
2022-10-12T14:04:05.183Z,102109.44
2022-10-12T14:06:35.244Z,102099.66
2022-10-12T14:09:16.116Z,102102.47
2022-10-12T14:11:43.847Z,102099.38
2022-10-12T14:14:21.082Z,102095.06
2022-10-12T14:16:50.106Z,102105.59
2022-10-12T14:19:30.724Z,102100.50
2022-10-12T14:21:58.772Z,102098.72
2022-10-12T14:24:25.398Z,102095.88
2022-10-12T14:26:54.719Z,102091.66
2022-10-12T14:29:27.185Z,102088.44
2022-10-12T14:31:56.229Z,102086.69
2022-10-12T14:34:28.815Z,102085.41
2022-10-12T14:37:08.590Z,102079.09
2022-10-12T14:39:35.962Z,102085.16
2022-10-12T14:42:04.919Z,102087.75
2022-10-12T14:44:42.804Z,102086.78
2022-10-12T14:47:24.132Z,102073.47
2022-10-12T14:49:52.778Z,102072.63
2022-10-12T14:52:35.120Z,102077.31
2022-10-12T14:55:01.664Z,102078.09
2022-10-12T14:57:30.243Z,102071.66
2022-10-12T14:59:57.553Z,102066.09
2022-10-12T15:02:29.813Z,102069.94
2022-10-12T15:04:56.901Z,102065.38
2022-10-12T15:07:33.963Z,102064.97
2022-10-12T15:10:00.875Z,102069.31
2022-10-12T15:12:30.549Z,102065.94
2022-10-12T15:14:59.013Z,102065.03
2022-10-12T15:17:25.580Z,102062.75
2022-10-12T15:19:52.554Z,102051.75
2022-10-12T15:22:21.614Z,102056.34
2022-10-12T15:24:48.381Z,102051.56
2022-10-12T15:27:16.095Z,102049.81
2022-10-12T15:29:43.502Z,102055.22
2022-10-12T15:32:12.316Z,102047.38
2022-10-12T15:34:38.895Z,102055.66
2022-10-12T15:37:09.093Z,102049.75
2022-10-12T15:39:36.418Z,102045.50
2022-10-12T15:42:03.371Z,102048.53
2022-10-12T15:44:29.927Z,102043.47
2022-10-12T15:46:56.588Z,102041.97
2022-10-12T15:49:24.503Z,102037.81
2022-10-12T15:51:53.286Z,102040.00
2022-10-12T15:54:19.869Z,102046.53
2022-10-12T15:56:46.430Z,102047.75
2022-10-12T15:59:13.023Z,102042.72
2022-10-12T16:01:40.010Z,102036.75
2022-10-12T16:04:07.000Z,102042.31
2022-10-12T16:06:33.751Z,102039.09
2022-10-12T16:09:00.310Z,102042.91
2022-10-12T16:11:26.919Z,102034.31
2022-10-12T16:13:56.720Z,102034.53
2022-10-12T16:16:23.814Z,102048.25
2022-10-12T16:18:52.155Z,102044.22
2022-10-12T16:21:18.740Z,102039.00
2022-10-12T16:23:45.332Z,102034.06
2022-10-12T16:26:13.383Z,102036.13
2022-10-12T16:28:40.214Z,102039.91
2022-10-12T16:31:16.110Z,102044.56
2022-10-12T16:33:43.041Z,102038.56
2022-10-12T16:36:15.035Z,102035.28
2022-10-12T16:38:42.529Z,102035.44
2022-10-12T16:41:13.417Z,102032.19
2022-10-12T16:43:40.301Z,102037.75
2022-10-12T16:46:07.836Z,102033.47
2022-10-12T16:48:35.094Z,102031.94
2022-10-12T16:51:01.724Z,102037.50
2022-10-12T16:53:28.387Z,102033.22
2022-10-12T16:55:55.022Z,102035.16
2022-10-12T16:58:21.823Z,102033.59
2022-10-12T17:00:48.560Z,102037.31
2022-10-12T17:03:15.631Z,102033.97
2022-10-12T17:05:43.230Z,102039.47
2022-10-12T17:08:15.122Z,102041.38
2022-10-12T17:10:43.862Z,102042.41
2022-10-12T17:13:10.651Z,102036.31
2022-10-12T17:15:41.630Z,102035.63
2022-10-12T17:18:08.404Z,102037.56
2022-10-12T17:20:37.891Z,102043.06
2022-10-12T17:23:04.511Z,102034.25
2022-10-12T17:25:31.282Z,102037.16
2022-10-12T17:27:58.353Z,102031.88
2022-10-12T17:30:25.004Z,102034.66
2022-10-12T17:32:51.648Z,102042.75
2022-10-12T17:35:18.237Z,102036.72
2022-10-12T17:37:44.985Z,102035.00
2022-10-12T17:40:11.689Z,102022.66
2022-10-12T17:42:38.704Z,102028.09
2022-10-12T17:45:05.879Z,102018.44
2022-10-12T17:47:33.031Z,102022.94
2022-10-12T17:49:59.677Z,102026.66
2022-10-12T17:52:26.244Z,102025.88
2022-10-12T17:54:53.171Z,102024.13
2022-10-12T17:57:20.122Z,102021.56
2022-10-12T17:59:47.103Z,102022.56
2022-10-12T18:02:13.850Z,102020.88
2022-10-12T18:04:40.907Z,102025.38
2022-10-12T18:07:07.624Z,102016.56
2022-10-12T18:09:34.238Z,102031.72
2022-10-12T18:12:00.914Z,102016.69
2022-10-12T18:14:27.981Z,102018.56
2022-10-12T18:16:54.508Z,102027.44
2022-10-12T18:19:21.219Z,102013.31
2022-10-12T18:21:47.859Z,102008.97
2022-10-12T18:24:17.776Z,102010.78
2022-10-12T18:26:46.186Z,102009.91
2022-10-12T18:29:16.987Z,102008.25
2022-10-12T18:31:43.621Z,102010.03
2022-10-12T18:34:11.228Z,102005.66
2022-10-12T18:36:39.656Z,102004.88
2022-10-12T18:39:06.315Z,102007.59
2022-10-12T18:41:34.011Z,102004.06
2022-10-12T18:44:02.446Z,102008.53
2022-10-12T18:46:33.003Z,102005.06
2022-10-12T18:49:02.764Z,102003.31
2022-10-12T18:51:32.378Z,101998.06
2022-10-12T18:54:00.456Z,101993.66
2022-10-12T18:56:28.229Z,101996.34
2022-10-12T18:58:57.244Z,101999.09
2022-10-12T19:01:25.991Z,102001.78
2022-10-12T19:03:54.637Z,101989.47
2022-10-12T19:06:26.244Z,102001.84
2022-10-12T19:08:54.690Z,101991.25
2022-10-12T19:11:23.260Z,101997.47
2022-10-12T19:14:02.309Z,101993.97
2022-10-12T19:16:29.868Z,101996.69
2022-10-12T19:18:57.880Z,101990.56
2022-10-12T19:21:24.642Z,101980.88
2022-10-12T19:23:51.315Z,101991.50
2022-10-12T19:26:21.013Z,101985.34
2022-10-12T19:28:48.383Z,101997.75
2022-10-12T19:31:24.687Z,101988.00
2022-10-12T19:33:51.381Z,101980.03
2022-10-12T19:36:18.786Z,101983.63
2022-10-12T19:38:46.431Z,101981.03
2022-10-12T19:41:13.693Z,101978.47
2022-10-12T19:43:40.603Z,101978.44
2022-10-12T19:46:09.801Z,101974.00
2022-10-12T19:48:37.802Z,101978.53
2022-10-12T19:51:10.680Z,101982.06
2022-10-12T19:53:38.397Z,101979.47
2022-10-12T19:56:11.218Z,101976.84
2022-10-12T19:58:38.567Z,101977.75
2022-10-12T20:01:07.525Z,101976.84
2022-10-12T20:03:34.834Z,101975.97
2022-10-12T20:06:02.994Z,101973.34
2022-10-12T20:08:29.751Z,101968.94
2022-10-12T20:10:57.368Z,101973.47
2022-10-12T20:13:24.597Z,101966.38
2022-10-12T20:15:53.046Z,101963.75
2022-10-12T20:18:19.820Z,101968.19
2022-10-12T20:20:46.550Z,101967.34
2022-10-12T20:23:13.403Z,101974.41
2022-10-12T20:25:44.712Z,101965.63
2022-10-12T20:28:11.472Z,101972.69
2022-10-12T20:30:39.064Z,101966.50
2022-10-12T20:33:06.027Z,101963.91
2022-10-12T20:35:32.767Z,101962.09
2022-10-12T20:37:59.452Z,101960.38
2022-10-12T20:40:26.328Z,101961.25
2022-10-12T20:42:52.994Z,101956.84
2022-10-12T20:45:19.692Z,101953.31
2022-10-12T20:47:46.441Z,101956.84
2022-10-12T20:50:13.883Z,101946.25
2022-10-12T20:52:43.130Z,101943.59
2022-10-12T20:55:10.219Z,101939.16
2022-10-12T20:57:36.959Z,101936.53
2022-10-12T21:00:04.419Z,101937.41
2022-10-12T21:02:33.613Z,101929.44
2022-10-12T21:05:00.273Z,101925.03
2022-10-12T21:07:26.888Z,101933.00
2022-10-12T21:09:54.072Z,101932.16
2022-10-12T21:12:21.069Z,101928.63
2022-10-12T21:14:48.934Z,101920.66
2022-10-12T21:17:15.546Z,101922.44
2022-10-12T21:19:42.122Z,101917.13
2022-10-12T21:22:08.789Z,101919.78
2022-10-12T21:24:35.326Z,101921.56
2022-10-12T21:27:02.062Z,101924.28
2022-10-12T21:29:28.645Z,101927.78
2022-10-12T21:31:55.604Z,101921.63
2022-10-12T21:34:22.328Z,101931.34
2022-10-12T21:36:48.872Z,101922.50
2022-10-12T21:39:16.362Z,101926.09
2022-10-12T21:41:42.925Z,101920.78
2022-10-12T21:44:10.645Z,101935.88
2022-10-12T21:46:37.376Z,101934.13
2022-10-12T21:49:05.001Z,101932.34
2022-10-12T21:51:31.911Z,101926.19
2022-10-12T21:53:58.537Z,101919.97
2022-10-12T21:56:27.034Z,101925.28
2022-10-12T21:58:54.497Z,101926.22
2022-10-12T22:01:22.753Z,101924.47
2022-10-12T22:03:53.890Z,101931.53
2022-10-12T22:06:21.229Z,101923.59
2022-10-12T22:08:54.438Z,101922.69
2022-10-12T22:11:21.210Z,101918.28
2022-10-12T22:13:47.813Z,101921.84
2022-10-12T22:16:16.580Z,101917.41
2022-10-12T22:18:43.410Z,101914.81
2022-10-12T22:21:12.594Z,101909.50
2022-10-12T22:23:39.704Z,101914.81
2022-10-12T22:26:08.749Z,101913.94
2022-10-12T22:28:35.350Z,101909.53
2022-10-12T22:31:05.789Z,101905.13
2022-10-12T22:33:32.357Z,101909.59
2022-10-12T22:36:00.442Z,101908.72
2022-10-12T22:38:27.231Z,101915.78
2022-10-12T22:40:58.904Z,101909.59
2022-10-12T22:43:26.821Z,101899.88
2022-10-12T22:45:53.793Z,101899.00
2022-10-12T22:48:20.816Z,101899.00
2022-10-12T22:50:47.836Z,101896.41
2022-10-12T22:53:15.479Z,101893.75
2022-10-12T22:55:43.288Z,101897.28
2022-10-12T22:58:10.592Z,101892.00
2022-10-12T23:00:37.200Z,101895.53
2022-10-12T23:03:03.797Z,101894.66
2022-10-12T23:05:30.328Z,101892.03
2022-10-12T23:07:56.891Z,101885.81
2022-10-12T23:10:23.435Z,101890.28
2022-10-12T23:12:50.118Z,101874.41
2022-10-12T23:15:16.835Z,101883.22
2022-10-12T23:17:43.887Z,101877.91
2022-10-12T23:20:10.701Z,101885.91
2022-10-12T23:22:37.232Z,101884.16
2022-10-12T23:25:03.866Z,101886.81
2022-10-12T23:27:30.400Z,101878.84
2022-10-12T23:29:56.935Z,101882.38
2022-10-12T23:32:23.495Z,101877.09
2022-10-12T23:34:50.037Z,101878.03
2022-10-12T23:37:16.590Z,101885.97
2022-10-12T23:39:43.280Z,101887.78
2022-10-12T23:42:10.301Z,101878.94
2022-10-12T23:44:36.864Z,101882.47
2022-10-12T23:47:03.447Z,101867.44
2022-10-12T23:49:29.983Z,101871.88
2022-10-12T23:52:00.836Z,101871.00
2022-10-12T23:54:27.359Z,101875.44
2022-10-12T23:56:54.118Z,101875.44
2022-10-12T23:59:20.674Z,101875.44
